sensor_id;sensor_type;location;lat;lon;timestamp;P1;durP1;ratioP1;P2;durP2;ratioP2
27293;SDS011;14785;52.556;13.430;2024-01-25T00:01:05;36.60;;;12.53;;
27293;SDS011;14785;52.556;13.430;2024-01-25T00:03:31;45.53;;;15.53;;
27293;SDS011;14785;52.556;13.430;2024-01-25T00:05:56;29.17;;;10.70;;
27293;SDS011;14785;52.556;13.430;2024-01-25T00:08:22;43.63;;;14.83;;
27293;SDS011;14785;52.556;13.430;2024-01-25T00:10:47;36.00;;;12.00;;
27293;SDS011;14785;52.556;13.430;2024-01-25T00:13:12;39.07;;;14.17;;
27293;SDS011;14785;52.556;13.430;2024-01-25T00:15:38;41.53;;;16.03;;
27293;SDS011;14785;52.556;13.430;2024-01-25T00:18:03;33.13;;;11.10;;
27293;SDS011;14785;52.556;13.430;2024-01-25T00:20:29;41.50;;;13.33;;
27293;SDS011;14785;52.556;13.430;2024-01-25T00:22:54;38.93;;;13.77;;
27293;SDS011;14785;52.556;13.430;2024-01-25T00:25:20;40.90;;;15.43;;
27293;SDS011;14785;52.556;13.430;2024-01-25T00:27:45;47.03;;;18.57;;
27293;SDS011;14785;52.556;13.430;2024-01-25T00:30:12;30.83;;;12.32;;
27293;SDS011;14785;52.556;13.430;2024-01-25T00:32:38;38.10;;;15.90;;
27293;SDS011;14785;52.556;13.430;2024-01-25T00:35:03;37.03;;;18.83;;
27293;SDS011;14785;52.556;13.430;2024-01-25T00:37:29;39.78;;;15.65;;
27293;SDS011;14785;52.556;13.430;2024-01-25T00:39:55;37.67;;;16.05;;
27293;SDS011;14785;52.556;13.430;2024-01-25T00:42:21;41.73;;;15.70;;
27293;SDS011;14785;52.556;13.430;2024-01-25T00:44:47;43.00;;;15.75;;
27293;SDS011;14785;52.556;13.430;2024-01-25T00:47:13;30.07;;;14.23;;
27293;SDS011;14785;52.556;13.430;2024-01-25T00:49:39;45.63;;;19.63;;
27293;SDS011;14785;52.556;13.430;2024-01-25T00:52:04;35.38;;;17.45;;
27293;SDS011;14785;52.556;13.430;2024-01-25T00:54:30;39.05;;;13.02;;
27293;SDS011;14785;52.556;13.430;2024-01-25T00:56:56;38.38;;;15.73;;
27293;SDS011;14785;52.556;13.430;2024-01-25T00:59:22;34.50;;;14.13;;
27293;SDS011;14785;52.556;13.430;2024-01-25T01:01:47;34.67;;;14.23;;
27293;SDS011;14785;52.556;13.430;2024-01-25T01:04:13;32.30;;;13.07;;
27293;SDS011;14785;52.556;13.430;2024-01-25T01:06:42;36.25;;;13.98;;
27293;SDS011;14785;52.556;13.430;2024-01-25T01:09:07;39.73;;;12.73;;
27293;SDS011;14785;52.556;13.430;2024-01-25T01:11:33;32.58;;;12.77;;
27293;SDS011;14785;52.556;13.430;2024-01-25T01:13:59;38.53;;;14.40;;
27293;SDS011;14785;52.556;13.430;2024-01-25T01:16:24;42.60;;;13.67;;
27293;SDS011;14785;52.556;13.430;2024-01-25T01:18:50;41.57;;;14.27;;
27293;SDS011;14785;52.556;13.430;2024-01-25T01:21:15;35.77;;;13.73;;
27293;SDS011;14785;52.556;13.430;2024-01-25T01:23:41;45.63;;;16.73;;
27293;SDS011;14785;52.556;13.430;2024-01-25T01:26:06;37.73;;;13.70;;
27293;SDS011;14785;52.556;13.430;2024-01-25T01:28:32;35.53;;;14.00;;
27293;SDS011;14785;52.556;13.430;2024-01-25T01:30:58;36.33;;;14.77;;
27293;SDS011;14785;52.556;13.430;2024-01-25T01:33:23;40.13;;;15.67;;
27293;SDS011;14785;52.556;13.430;2024-01-25T01:35:48;36.13;;;17.93;;
27293;SDS011;14785;52.556;13.430;2024-01-25T01:38:14;38.40;;;18.00;;
27293;SDS011;14785;52.556;13.430;2024-01-25T01:40:39;46.33;;;16.47;;
27293;SDS011;14785;52.556;13.430;2024-01-25T01:43:05;43.90;;;17.77;;
27293;SDS011;14785;52.556;13.430;2024-01-25T01:45:30;42.97;;;14.57;;
27293;SDS011;14785;52.556;13.430;2024-01-25T01:47:56;49.67;;;14.50;;
27293;SDS011;14785;52.556;13.430;2024-01-25T01:50:22;37.33;;;17.42;;
27293;SDS011;14785;52.556;13.430;2024-01-25T01:52:48;36.47;;;16.88;;
27293;SDS011;14785;52.556;13.430;2024-01-25T01:55:15;33.97;;;14.43;;
27293;SDS011;14785;52.556;13.430;2024-01-25T01:57:42;42.97;;;17.65;;
27293;SDS011;14785;52.556;13.430;2024-01-25T02:00:08;38.58;;;22.23;;
27293;SDS011;14785;52.556;13.430;2024-01-25T02:02:34;42.80;;;21.17;;
27293;SDS011;14785;52.556;13.430;2024-01-25T02:05:00;32.97;;;20.52;;
27293;SDS011;14785;52.556;13.430;2024-01-25T02:07:26;39.30;;;18.60;;
27293;SDS011;14785;52.556;13.430;2024-01-25T02:09:52;40.70;;;22.63;;
27293;SDS011;14785;52.556;13.430;2024-01-25T02:12:17;51.47;;;25.87;;
27293;SDS011;14785;52.556;13.430;2024-01-25T02:14:43;47.00;;;29.23;;
27293;SDS011;14785;52.556;13.430;2024-01-25T02:17:08;44.13;;;23.90;;
27293;SDS011;14785;52.556;13.430;2024-01-25T02:19:34;54.53;;;34.03;;
27293;SDS011;14785;52.556;13.430;2024-01-25T02:21:59;45.30;;;30.30;;
27293;SDS011;14785;52.556;13.430;2024-01-25T02:24:26;39.30;;;20.63;;
27293;SDS011;14785;52.556;13.430;2024-01-25T02:26:51;48.73;;;27.90;;
27293;SDS011;14785;52.556;13.430;2024-01-25T02:29:17;42.57;;;27.97;;
27293;SDS011;14785;52.556;13.430;2024-01-25T02:31:42;42.73;;;17.97;;
27293;SDS011;14785;52.556;13.430;2024-01-25T02:34:07;43.93;;;19.93;;
27293;SDS011;14785;52.556;13.430;2024-01-25T02:36:33;41.47;;;15.70;;
27293;SDS011;14785;52.556;13.430;2024-01-25T02:38:58;40.33;;;22.30;;
27293;SDS011;14785;52.556;13.430;2024-01-25T02:41:23;47.03;;;24.50;;
27293;SDS011;14785;52.556;13.430;2024-01-25T02:43:49;44.60;;;19.80;;
27293;SDS011;14785;52.556;13.430;2024-01-25T02:46:14;50.23;;;27.23;;
27293;SDS011;14785;52.556;13.430;2024-01-25T02:48:39;52.37;;;32.07;;
27293;SDS011;14785;52.556;13.430;2024-01-25T02:51:05;42.10;;;18.87;;
27293;SDS011;14785;52.556;13.430;2024-01-25T02:53:30;44.13;;;26.37;;
27293;SDS011;14785;52.556;13.430;2024-01-25T02:55:56;37.27;;;15.60;;
27293;SDS011;14785;52.556;13.430;2024-01-25T02:58:21;37.78;;;16.30;;
27293;SDS011;14785;52.556;13.430;2024-01-25T03:00:47;41.10;;;15.03;;
27293;SDS011;14785;52.556;13.430;2024-01-25T03:03:12;51.20;;;40.83;;
27293;SDS011;14785;52.556;13.430;2024-01-25T03:05:38;44.40;;;26.07;;
27293;SDS011;14785;52.556;13.430;2024-01-25T03:08:03;55.30;;;41.33;;
27293;SDS011;14785;52.556;13.430;2024-01-25T03:10:29;39.53;;;31.75;;
27293;SDS011;14785;52.556;13.430;2024-01-25T03:12:54;54.90;;;35.07;;
27293;SDS011;14785;52.556;13.430;2024-01-25T03:15:20;45.80;;;20.23;;
27293;SDS011;14785;52.556;13.430;2024-01-25T03:17:46;48.77;;;27.27;;
27293;SDS011;14785;52.556;13.430;2024-01-25T03:20:11;47.80;;;23.63;;
27293;SDS011;14785;52.556;13.430;2024-01-25T03:22:37;40.63;;;19.17;;
27293;SDS011;14785;52.556;13.430;2024-01-25T03:25:02;38.13;;;14.17;;
27293;SDS011;14785;52.556;13.430;2024-01-25T03:27:27;48.83;;;19.43;;
27293;SDS011;14785;52.556;13.430;2024-01-25T03:29:53;40.27;;;13.00;;
27293;SDS011;14785;52.556;13.430;2024-01-25T03:32:18;51.63;;;13.50;;
27293;SDS011;14785;52.556;13.430;2024-01-25T03:34:43;40.40;;;15.90;;
27293;SDS011;14785;52.556;13.430;2024-01-25T03:37:09;35.20;;;13.77;;
27293;SDS011;14785;52.556;13.430;2024-01-25T03:39:34;40.93;;;12.27;;
27293;SDS011;14785;52.556;13.430;2024-01-25T03:42:00;37.70;;;13.10;;
27293;SDS011;14785;52.556;13.430;2024-01-25T03:44:25;38.90;;;13.00;;
27293;SDS011;14785;52.556;13.430;2024-01-25T03:46:51;46.27;;;14.60;;
27293;SDS011;14785;52.556;13.430;2024-01-25T03:49:16;40.77;;;13.63;;
27293;SDS011;14785;52.556;13.430;2024-01-25T03:51:42;39.72;;;13.32;;
27293;SDS011;14785;52.556;13.430;2024-01-25T03:54:07;38.97;;;12.63;;
27293;SDS011;14785;52.556;13.430;2024-01-25T03:56:33;43.97;;;14.40;;
27293;SDS011;14785;52.556;13.430;2024-01-25T03:58:58;41.90;;;16.00;;
27293;SDS011;14785;52.556;13.430;2024-01-25T04:01:26;36.55;;;12.90;;
27293;SDS011;14785;52.556;13.430;2024-01-25T04:03:51;43.57;;;14.57;;
27293;SDS011;14785;52.556;13.430;2024-01-25T04:06:17;40.37;;;11.07;;
27293;SDS011;14785;52.556;13.430;2024-01-25T04:08:42;39.17;;;13.20;;
27293;SDS011;14785;52.556;13.430;2024-01-25T04:11:08;38.35;;;13.10;;
27293;SDS011;14785;52.556;13.430;2024-01-25T04:13:34;44.25;;;19.13;;
27293;SDS011;14785;52.556;13.430;2024-01-25T04:16:00;46.95;;;13.23;;
27293;SDS011;14785;52.556;13.430;2024-01-25T04:18:25;34.13;;;11.03;;
27293;SDS011;14785;52.556;13.430;2024-01-25T04:20:51;31.67;;;11.20;;
27293;SDS011;14785;52.556;13.430;2024-01-25T04:23:16;46.20;;;16.20;;
27293;SDS011;14785;52.556;13.430;2024-01-25T04:25:42;47.80;;;13.25;;
27293;SDS011;14785;52.556;13.430;2024-01-25T04:28:08;45.47;;;18.53;;
27293;SDS011;14785;52.556;13.430;2024-01-25T04:30:33;49.97;;;15.80;;
27293;SDS011;14785;52.556;13.430;2024-01-25T04:32:58;40.47;;;16.57;;
27293;SDS011;14785;52.556;13.430;2024-01-25T04:35:24;40.28;;;12.15;;
27293;SDS011;14785;52.556;13.430;2024-01-25T04:37:49;35.77;;;12.20;;
27293;SDS011;14785;52.556;13.430;2024-01-25T04:40:15;54.10;;;18.20;;
27293;SDS011;14785;52.556;13.430;2024-01-25T04:42:40;42.33;;;14.37;;
27293;SDS011;14785;52.556;13.430;2024-01-25T04:45:06;44.87;;;14.13;;
27293;SDS011;14785;52.556;13.430;2024-01-25T04:49:57;51.80;;;35.33;;
27293;SDS011;14785;52.556;13.430;2024-01-25T04:52:23;44.93;;;20.80;;
27293;SDS011;14785;52.556;13.430;2024-01-25T04:54:48;44.63;;;19.63;;
27293;SDS011;14785;52.556;13.430;2024-01-25T04:57:14;37.33;;;16.33;;
27293;SDS011;14785;52.556;13.430;2024-01-25T04:59:39;46.27;;;17.80;;
27293;SDS011;14785;52.556;13.430;2024-01-25T05:02:04;41.07;;;14.80;;
27293;SDS011;14785;52.556;13.430;2024-01-25T05:04:30;47.23;;;14.83;;
27293;SDS011;14785;52.556;13.430;2024-01-25T05:06:56;46.40;;;14.13;;
27293;SDS011;14785;52.556;13.430;2024-01-25T05:09:22;40.47;;;13.17;;
27293;SDS011;14785;52.556;13.430;2024-01-25T05:11:49;40.17;;;14.73;;
27293;SDS011;14785;52.556;13.430;2024-01-25T05:14:14;44.57;;;17.43;;
27293;SDS011;14785;52.556;13.430;2024-01-25T05:16:40;43.90;;;19.70;;
27293;SDS011;14785;52.556;13.430;2024-01-25T05:19:05;49.97;;;18.83;;
27293;SDS011;14785;52.556;13.430;2024-01-25T05:21:31;33.73;;;15.30;;
27293;SDS011;14785;52.556;13.430;2024-01-25T05:23:56;44.05;;;18.10;;
27293;SDS011;14785;52.556;13.430;2024-01-25T05:26:22;39.50;;;17.83;;
27293;SDS011;14785;52.556;13.430;2024-01-25T05:28:47;40.13;;;17.60;;
27293;SDS011;14785;52.556;13.430;2024-01-25T05:31:13;61.83;;;25.42;;
27293;SDS011;14785;52.556;13.430;2024-01-25T05:33:39;45.83;;;16.17;;
27293;SDS011;14785;52.556;13.430;2024-01-25T05:36:05;47.38;;;23.90;;
27293;SDS011;14785;52.556;13.430;2024-01-25T05:38:31;48.25;;;19.35;;
27293;SDS011;14785;52.556;13.430;2024-01-25T05:40:57;47.83;;;21.83;;
27293;SDS011;14785;52.556;13.430;2024-01-25T05:43:22;44.42;;;17.58;;
27293;SDS011;14785;52.556;13.430;2024-01-25T05:45:48;29.43;;;11.23;;
27293;SDS011;14785;52.556;13.430;2024-01-25T05:48:14;37.17;;;15.27;;
27293;SDS011;14785;52.556;13.430;2024-01-25T05:50:39;43.27;;;14.37;;
27293;SDS011;14785;52.556;13.430;2024-01-25T05:53:05;33.53;;;10.90;;
27293;SDS011;14785;52.556;13.430;2024-01-25T05:55:30;40.50;;;19.23;;
27293;SDS011;14785;52.556;13.430;2024-01-25T05:57:56;34.20;;;15.33;;
27293;SDS011;14785;52.556;13.430;2024-01-25T06:00:21;35.33;;;16.40;;
27293;SDS011;14785;52.556;13.430;2024-01-25T06:02:47;35.60;;;15.53;;
27293;SDS011;14785;52.556;13.430;2024-01-25T06:05:12;37.13;;;15.20;;
27293;SDS011;14785;52.556;13.430;2024-01-25T06:07:38;33.43;;;15.93;;
27293;SDS011;14785;52.556;13.430;2024-01-25T06:10:03;41.47;;;18.60;;
27293;SDS011;14785;52.556;13.430;2024-01-25T06:12:29;40.58;;;13.70;;
27293;SDS011;14785;52.556;13.430;2024-01-25T06:14:55;30.73;;;14.90;;
27293;SDS011;14785;52.556;13.430;2024-01-25T06:17:20;37.10;;;15.57;;
27293;SDS011;14785;52.556;13.430;2024-01-25T06:19:45;33.20;;;18.43;;
27293;SDS011;14785;52.556;13.430;2024-01-25T06:22:11;33.67;;;10.93;;
27293;SDS011;14785;52.556;13.430;2024-01-25T06:27:03;43.90;;;14.57;;
27293;SDS011;14785;52.556;13.430;2024-01-25T06:29:28;31.58;;;11.68;;
27293;SDS011;14785;52.556;13.430;2024-01-25T06:31:54;37.50;;;12.30;;
27293;SDS011;14785;52.556;13.430;2024-01-25T06:34:19;37.47;;;11.77;;
27293;SDS011;14785;52.556;13.430;2024-01-25T06:36:45;34.27;;;14.13;;
27293;SDS011;14785;52.556;13.430;2024-01-25T06:39:10;39.67;;;15.70;;
27293;SDS011;14785;52.556;13.430;2024-01-25T06:41:36;40.25;;;17.17;;
27293;SDS011;14785;52.556;13.430;2024-01-25T06:44:01;35.83;;;14.20;;
27293;SDS011;14785;52.556;13.430;2024-01-25T06:46:27;41.47;;;14.93;;
27293;SDS011;14785;52.556;13.430;2024-01-25T06:48:53;37.33;;;14.87;;
27293;SDS011;14785;52.556;13.430;2024-01-25T06:51:22;35.38;;;14.05;;
27293;SDS011;14785;52.556;13.430;2024-01-25T06:53:51;29.90;;;11.75;;
27293;SDS011;14785;52.556;13.430;2024-01-25T06:56:21;32.70;;;14.32;;
27293;SDS011;14785;52.556;13.430;2024-01-25T06:58:47;40.23;;;15.33;;
27293;SDS011;14785;52.556;13.430;2024-01-25T07:01:12;37.77;;;11.40;;
27293;SDS011;14785;52.556;13.430;2024-01-25T07:03:38;36.60;;;12.77;;
27293;SDS011;14785;52.556;13.430;2024-01-25T07:06:04;28.23;;;11.67;;
27293;SDS011;14785;52.556;13.430;2024-01-25T07:08:29;35.05;;;14.75;;
27293;SDS011;14785;52.556;13.430;2024-01-25T07:10:55;42.63;;;17.40;;
27293;SDS011;14785;52.556;13.430;2024-01-25T07:13:21;36.85;;;15.40;;
27293;SDS011;14785;52.556;13.430;2024-01-25T07:15:47;35.30;;;15.65;;
27293;SDS011;14785;52.556;13.430;2024-01-25T07:18:12;31.65;;;13.73;;
27293;SDS011;14785;52.556;13.430;2024-01-25T07:20:38;34.37;;;15.20;;
27293;SDS011;14785;52.556;13.430;2024-01-25T07:23:03;32.87;;;14.53;;
27293;SDS011;14785;52.556;13.430;2024-01-25T07:25:29;30.07;;;13.90;;
27293;SDS011;14785;52.556;13.430;2024-01-25T07:27:54;33.10;;;15.83;;
27293;SDS011;14785;52.556;13.430;2024-01-25T07:30:19;36.77;;;18.10;;
27293;SDS011;14785;52.556;13.430;2024-01-25T07:32:45;32.30;;;13.30;;
27293;SDS011;14785;52.556;13.430;2024-01-25T07:35:11;36.38;;;14.73;;
27293;SDS011;14785;52.556;13.430;2024-01-25T07:40:03;32.45;;;10.57;;
27293;SDS011;14785;52.556;13.430;2024-01-25T07:42:29;40.15;;;12.50;;
27293;SDS011;14785;52.556;13.430;2024-01-25T07:44:55;34.30;;;11.37;;
27293;SDS011;14785;52.556;13.430;2024-01-25T07:47:20;35.03;;;12.23;;
27293;SDS011;14785;52.556;13.430;2024-01-25T07:49:47;37.57;;;11.37;;
27293;SDS011;14785;52.556;13.430;2024-01-25T07:52:13;35.55;;;11.38;;
27293;SDS011;14785;52.556;13.430;2024-01-25T07:54:38;36.37;;;12.23;;
27293;SDS011;14785;52.556;13.430;2024-01-25T07:57:04;37.67;;;12.07;;
27293;SDS011;14785;52.556;13.430;2024-01-25T07:59:30;30.77;;;11.55;;
27293;SDS011;14785;52.556;13.430;2024-01-25T08:01:55;36.13;;;12.07;;
27293;SDS011;14785;52.556;13.430;2024-01-25T08:04:21;48.37;;;14.20;;
27293;SDS011;14785;52.556;13.430;2024-01-25T08:06:46;34.10;;;12.00;;
27293;SDS011;14785;52.556;13.430;2024-01-25T08:09:12;40.03;;;15.47;;
27293;SDS011;14785;52.556;13.430;2024-01-25T08:11:37;38.70;;;11.67;;
27293;SDS011;14785;52.556;13.430;2024-01-25T08:14:03;32.63;;;10.90;;
27293;SDS011;14785;52.556;13.430;2024-01-25T08:16:29;48.37;;;13.07;;
27293;SDS011;14785;52.556;13.430;2024-01-25T08:18:54;36.25;;;14.95;;
27293;SDS011;14785;52.556;13.430;2024-01-25T08:21:20;34.87;;;11.83;;
27293;SDS011;14785;52.556;13.430;2024-01-25T08:23:46;36.30;;;12.35;;
27293;SDS011;14785;52.556;13.430;2024-01-25T08:26:12;38.00;;;12.60;;
27293;SDS011;14785;52.556;13.430;2024-01-25T08:28:41;43.50;;;14.73;;
27293;SDS011;14785;52.556;13.430;2024-01-25T08:31:08;38.78;;;11.82;;
27293;SDS011;14785;52.556;13.430;2024-01-25T08:33:34;46.10;;;13.77;;
27293;SDS011;14785;52.556;13.430;2024-01-25T08:35:59;39.27;;;12.47;;
27293;SDS011;14785;52.556;13.430;2024-01-25T08:38:25;36.80;;;13.20;;
27293;SDS011;14785;52.556;13.430;2024-01-25T08:40:50;35.73;;;14.63;;
27293;SDS011;14785;52.556;13.430;2024-01-25T08:43:16;36.20;;;12.67;;
27293;SDS011;14785;52.556;13.430;2024-01-25T08:45:42;37.60;;;12.55;;
27293;SDS011;14785;52.556;13.430;2024-01-25T08:48:08;48.10;;;13.83;;
27293;SDS011;14785;52.556;13.430;2024-01-25T08:50:34;39.37;;;12.13;;
27293;SDS011;14785;52.556;13.430;2024-01-25T08:53:00;40.10;;;13.13;;
27293;SDS011;14785;52.556;13.430;2024-01-25T08:55:26;28.70;;;11.57;;
27293;SDS011;14785;52.556;13.430;2024-01-25T08:57:51;37.43;;;13.97;;
27293;SDS011;14785;52.556;13.430;2024-01-25T09:00:17;46.07;;;12.73;;
27293;SDS011;14785;52.556;13.430;2024-01-25T09:02:43;40.20;;;12.48;;
27293;SDS011;14785;52.556;13.430;2024-01-25T09:05:09;36.22;;;11.88;;
27293;SDS011;14785;52.556;13.430;2024-01-25T09:07:35;39.35;;;12.75;;
27293;SDS011;14785;52.556;13.430;2024-01-25T09:10:01;40.33;;;13.73;;
27293;SDS011;14785;52.556;13.430;2024-01-25T09:12:27;44.00;;;17.10;;
27293;SDS011;14785;52.556;13.430;2024-01-25T09:14:53;50.55;;;28.88;;
27293;SDS011;14785;52.556;13.430;2024-01-25T09:17:18;49.07;;;18.00;;
27293;SDS011;14785;52.556;13.430;2024-01-25T09:19:50;33.03;;;13.75;;
27293;SDS011;14785;52.556;13.430;2024-01-25T09:22:18;31.98;;;12.20;;
27293;SDS011;14785;52.556;13.430;2024-01-25T09:24:47;40.13;;;16.58;;
27293;SDS011;14785;52.556;13.430;2024-01-25T09:27:14;38.08;;;16.80;;
27293;SDS011;14785;52.556;13.430;2024-01-25T09:29:40;43.30;;;17.92;;
27293;SDS011;14785;52.556;13.430;2024-01-25T09:32:06;44.67;;;17.55;;
27293;SDS011;14785;52.556;13.430;2024-01-25T09:34:33;37.10;;;12.63;;
27293;SDS011;14785;52.556;13.430;2024-01-25T09:36:59;32.03;;;11.83;;
27293;SDS011;14785;52.556;13.430;2024-01-25T09:39:24;37.83;;;11.33;;
27293;SDS011;14785;52.556;13.430;2024-01-25T09:41:49;42.07;;;11.50;;
27293;SDS011;14785;52.556;13.430;2024-01-25T09:44:15;37.67;;;14.25;;
27293;SDS011;14785;52.556;13.430;2024-01-25T09:46:42;40.17;;;16.38;;
27293;SDS011;14785;52.556;13.430;2024-01-25T09:49:10;36.47;;;15.93;;
27293;SDS011;14785;52.556;13.430;2024-01-25T09:51:38;38.22;;;14.20;;
27293;SDS011;14785;52.556;13.430;2024-01-25T09:54:05;32.78;;;11.55;;
27293;SDS011;14785;52.556;13.430;2024-01-25T09:56:31;35.22;;;12.60;;
27293;SDS011;14785;52.556;13.430;2024-01-25T09:58:57;34.13;;;15.27;;
27293;SDS011;14785;52.556;13.430;2024-01-25T10:01:23;38.38;;;15.52;;
27293;SDS011;14785;52.556;13.430;2024-01-25T10:03:49;40.03;;;15.50;;
27293;SDS011;14785;52.556;13.430;2024-01-25T10:06:15;37.17;;;12.47;;
27293;SDS011;14785;52.556;13.430;2024-01-25T10:08:41;34.72;;;13.52;;
27293;SDS011;14785;52.556;13.430;2024-01-25T10:11:07;33.03;;;12.63;;
27293;SDS011;14785;52.556;13.430;2024-01-25T10:13:43;37.03;;;11.75;;
27293;SDS011;14785;52.556;13.430;2024-01-25T10:16:19;34.38;;;12.18;;
27293;SDS011;14785;52.556;13.430;2024-01-25T10:18:47;36.22;;;12.20;;
27293;SDS011;14785;52.556;13.430;2024-01-25T10:21:14;32.97;;;11.68;;
27293;SDS011;14785;52.556;13.430;2024-01-25T10:23:40;31.60;;;17.02;;
27293;SDS011;14785;52.556;13.430;2024-01-25T10:26:07;33.75;;;12.20;;
27293;SDS011;14785;52.556;13.430;2024-01-25T10:28:33;35.08;;;11.80;;
27293;SDS011;14785;52.556;13.430;2024-01-25T10:31:02;29.40;;;10.27;;
27293;SDS011;14785;52.556;13.430;2024-01-25T10:33:32;32.47;;;13.00;;
27293;SDS011;14785;52.556;13.430;2024-01-25T10:35:59;36.78;;;14.32;;
27293;SDS011;14785;52.556;13.430;2024-01-25T10:38:29;36.33;;;13.50;;
27293;SDS011;14785;52.556;13.430;2024-01-25T10:40:58;37.15;;;12.35;;
27293;SDS011;14785;52.556;13.430;2024-01-25T10:43:26;37.15;;;13.73;;
27293;SDS011;14785;52.556;13.430;2024-01-25T10:45:52;33.65;;;12.95;;
27293;SDS011;14785;52.556;13.430;2024-01-25T10:48:21;30.70;;;12.48;;
27293;SDS011;14785;52.556;13.430;2024-01-25T10:50:47;27.25;;;9.82;;
27293;SDS011;14785;52.556;13.430;2024-01-25T10:55:39;39.67;;;13.77;;
27293;SDS011;14785;52.556;13.430;2024-01-25T10:58:06;39.38;;;15.55;;
27293;SDS011;14785;52.556;13.430;2024-01-25T11:00:33;37.10;;;14.98;;
27293;SDS011;14785;52.556;13.430;2024-01-25T11:03:00;31.42;;;18.27;;
27293;SDS011;14785;52.556;13.430;2024-01-25T11:05:26;36.17;;;16.33;;
27293;SDS011;14785;52.556;13.430;2024-01-25T11:07:52;42.25;;;12.40;;
27293;SDS011;14785;52.556;13.430;2024-01-25T11:10:21;34.23;;;12.10;;
27293;SDS011;14785;52.556;13.430;2024-01-25T11:12:51;37.25;;;13.20;;
27293;SDS011;14785;52.556;13.430;2024-01-25T11:17:57;33.78;;;13.80;;
27293;SDS011;14785;52.556;13.430;2024-01-25T11:22:55;36.10;;;16.90;;
27293;SDS011;14785;52.556;13.430;2024-01-25T11:25:21;30.10;;;15.63;;
27293;SDS011;14785;52.556;13.430;2024-01-25T11:27:48;41.05;;;16.23;;
27293;SDS011;14785;52.556;13.430;2024-01-25T11:30:15;31.35;;;15.68;;
27293;SDS011;14785;52.556;13.430;2024-01-25T11:32:43;28.10;;;10.45;;
27293;SDS011;14785;52.556;13.430;2024-01-25T11:35:09;25.60;;;11.05;;
27293;SDS011;14785;52.556;13.430;2024-01-25T11:37:38;37.50;;;12.85;;
27293;SDS011;14785;52.556;13.430;2024-01-25T11:40:04;33.20;;;11.00;;
27293;SDS011;14785;52.556;13.430;2024-01-25T11:44:56;25.95;;;13.68;;
27293;SDS011;14785;52.556;13.430;2024-01-25T11:47:21;31.58;;;10.38;;
27293;SDS011;14785;52.556;13.430;2024-01-25T11:49:47;32.25;;;11.45;;
27293;SDS011;14785;52.556;13.430;2024-01-25T11:52:13;23.10;;;9.83;;
27293;SDS011;14785;52.556;13.430;2024-01-25T11:54:40;28.38;;;9.20;;
27293;SDS011;14785;52.556;13.430;2024-01-25T11:57:05;29.60;;;11.83;;
27293;SDS011;14785;52.556;13.430;2024-01-25T11:59:31;36.03;;;14.82;;
27293;SDS011;14785;52.556;13.430;2024-01-25T12:01:57;25.80;;;11.97;;
27293;SDS011;14785;52.556;13.430;2024-01-25T12:04:23;22.77;;;11.30;;
27293;SDS011;14785;52.556;13.430;2024-01-25T12:06:49;31.45;;;13.85;;
27293;SDS011;14785;52.556;13.430;2024-01-25T12:09:15;31.23;;;15.97;;
27293;SDS011;14785;52.556;13.430;2024-01-25T12:11:41;29.17;;;12.98;;
27293;SDS011;14785;52.556;13.430;2024-01-25T12:14:07;29.17;;;15.15;;
27293;SDS011;14785;52.556;13.430;2024-01-25T12:16:34;35.47;;;13.50;;
27293;SDS011;14785;52.556;13.430;2024-01-25T12:18:59;29.13;;;15.90;;
27293;SDS011;14785;52.556;13.430;2024-01-25T12:21:25;30.03;;;13.67;;
27293;SDS011;14785;52.556;13.430;2024-01-25T12:23:50;30.13;;;14.37;;
27293;SDS011;14785;52.556;13.430;2024-01-25T12:26:16;29.50;;;13.63;;
27293;SDS011;14785;52.556;13.430;2024-01-25T12:28:42;31.67;;;11.27;;
27293;SDS011;14785;52.556;13.430;2024-01-25T12:31:08;26.48;;;12.82;;
27293;SDS011;14785;52.556;13.430;2024-01-25T12:33:34;23.48;;;9.02;;
27293;SDS011;14785;52.556;13.430;2024-01-25T12:36:00;29.95;;;10.45;;
27293;SDS011;14785;52.556;13.430;2024-01-25T12:38:27;31.55;;;9.55;;
27293;SDS011;14785;52.556;13.430;2024-01-25T12:40:54;30.58;;;10.88;;
27293;SDS011;14785;52.556;13.430;2024-01-25T12:43:20;27.90;;;11.00;;
27293;SDS011;14785;52.556;13.430;2024-01-25T12:45:48;34.75;;;11.18;;
27293;SDS011;14785;52.556;13.430;2024-01-25T12:48:14;30.33;;;16.00;;
27293;SDS011;14785;52.556;13.430;2024-01-25T12:50:40;21.42;;;12.63;;
27293;SDS011;14785;52.556;13.430;2024-01-25T12:53:06;28.30;;;11.30;;
27293;SDS011;14785;52.556;13.430;2024-01-25T12:55:32;29.95;;;10.85;;
27293;SDS011;14785;52.556;13.430;2024-01-25T12:57:58;29.63;;;13.70;;
27293;SDS011;14785;52.556;13.430;2024-01-25T13:00:24;33.22;;;13.82;;
27293;SDS011;14785;52.556;13.430;2024-01-25T13:02:50;27.52;;;14.55;;
27293;SDS011;14785;52.556;13.430;2024-01-25T13:05:16;28.52;;;14.00;;
27293;SDS011;14785;52.556;13.430;2024-01-25T13:07:41;25.17;;;14.47;;
27293;SDS011;14785;52.556;13.430;2024-01-25T13:10:08;31.87;;;13.70;;
27293;SDS011;14785;52.556;13.430;2024-01-25T13:12:36;27.48;;;9.63;;
27293;SDS011;14785;52.556;13.430;2024-01-25T13:15:01;33.23;;;12.83;;
27293;SDS011;14785;52.556;13.430;2024-01-25T13:17:27;27.63;;;13.37;;
27293;SDS011;14785;52.556;13.430;2024-01-25T13:19:53;28.00;;;13.40;;
27293;SDS011;14785;52.556;13.430;2024-01-25T13:22:18;29.33;;;13.57;;
27293;SDS011;14785;52.556;13.430;2024-01-25T13:24:46;30.35;;;10.15;;
27293;SDS011;14785;52.556;13.430;2024-01-25T13:27:11;28.35;;;9.65;;
27293;SDS011;14785;52.556;13.430;2024-01-25T13:29:37;26.53;;;8.47;;
27293;SDS011;14785;52.556;13.430;2024-01-25T13:32:02;29.00;;;10.93;;
27293;SDS011;14785;52.556;13.430;2024-01-25T13:34:28;29.43;;;10.10;;
27293;SDS011;14785;52.556;13.430;2024-01-25T13:36:53;30.03;;;8.40;;
27293;SDS011;14785;52.556;13.430;2024-01-25T13:39:18;27.40;;;10.03;;
27293;SDS011;14785;52.556;13.430;2024-01-25T13:41:44;23.93;;;8.07;;
27293;SDS011;14785;52.556;13.430;2024-01-25T13:44:11;30.80;;;9.32;;
27293;SDS011;14785;52.556;13.430;2024-01-25T13:46:38;29.40;;;10.70;;
27293;SDS011;14785;52.556;13.430;2024-01-25T13:49:04;29.67;;;12.37;;
27293;SDS011;14785;52.556;13.430;2024-01-25T13:51:29;28.00;;;12.30;;
27293;SDS011;14785;52.556;13.430;2024-01-25T13:53:54;33.27;;;10.87;;
27293;SDS011;14785;52.556;13.430;2024-01-25T13:56:20;36.30;;;12.00;;
27293;SDS011;14785;52.556;13.430;2024-01-25T13:58:45;26.67;;;11.03;;
27293;SDS011;14785;52.556;13.430;2024-01-25T14:01:10;27.10;;;10.83;;
27293;SDS011;14785;52.556;13.430;2024-01-25T14:03:36;32.33;;;13.73;;
27293;SDS011;14785;52.556;13.430;2024-01-25T14:06:01;33.60;;;13.60;;
27293;SDS011;14785;52.556;13.430;2024-01-25T14:08:29;32.22;;;13.05;;
27293;SDS011;14785;52.556;13.430;2024-01-25T14:10:54;30.27;;;13.57;;
27293;SDS011;14785;52.556;13.430;2024-01-25T14:13:20;29.10;;;12.97;;
27293;SDS011;14785;52.556;13.430;2024-01-25T14:15:45;24.90;;;11.90;;
27293;SDS011;14785;52.556;13.430;2024-01-25T14:18:10;32.23;;;11.53;;